Terminal Aerodrome Forecast
Issued by NWS Missoula, MT

Home | Current Version | Previous Version | Text Only | Print | Product List | Glossary On
Versions: 1 2 3 4 5 6 7 8 9 10 11 12 13
000
FTUS45 KMSO 292320
TAFBTM
TAF
KBTM 292320Z 3000/3024 VRB05KT P6SM SKC
     FM300600 16008KT P6SM VCSH BKN100
     FM300900 31005KT P6SM -SHRA BKN060 OVC100=

USA.gov is the U.S. government's official web portal to all federal, state and local government web resources and services.